Time;durP1;ratioP1;P1;durP2;ratioP2;P2;SDS_P1;SDS_P2;PMS_P1;PMS_P2;Temp;Humidity;BMP_temperature;BMP_pressure;BME280_temperature;BME280_humidity;BME280_pressure;Samples;Min_cycle;Max_cycle;Signal;HPM_P1;HPM_P2
2022/10/12 00:00:20;;;;;;;;;;;;;;;;;;4994376;28;7157;-84
2022/10/12 00:02:46;;;;;;;;;;;;;;;;;;4995835;28;8361;-87
2022/10/12 00:05:11;;;;;;;;;;;;;;;;;;4995403;28;8730;-85
2022/10/12 00:07:36;;;;;;;;;;;;;;;;;;4994666;28;8401;-85
2022/10/12 00:10:03;;;;;;;;;;;;;;;;;;4995536;28;8485;-84
2022/10/12 00:12:28;;;;;;;;;;;;;;;;;;4995761;28;8429;-84
2022/10/12 00:14:54;;;;;;;;;;;;;;;;;;4995485;28;8364;-87
2022/10/12 00:17:19;;;;;;;;;;;;;;;;;;4995424;28;7143;-86
2022/10/12 00:19:45;;;;;;;;;;;;;;;;;;4995189;28;7202;-85
2022/10/12 00:22:10;;;;;;;;;;;;;;;;;;4995174;28;7029;-84
2022/10/12 00:24:36;;;;;;;;;;;;;;;;;;4995067;28;8332;-84
2022/10/12 00:27:01;;;;;;;;;;;;;;;;;;4995108;28;7012;-85
2022/10/12 00:29:27;;;;;;;;;;;;;;;;;;4995405;28;8446;-84
2022/10/12 00:31:52;;;;;;;;;;;;;;;;;;4994950;28;7170;-84
2022/10/12 00:34:18;;;;;;;;;;;;;;;;;;4994925;28;8415;-85
2022/10/12 00:36:43;;;;;;;;;;;;;;;;;;4995446;28;8483;-84
2022/10/12 00:39:09;;;;;;;;;;;;;;;;;;4994945;28;8374;-85
2022/10/12 00:41:37;;;;;;;;;;;;;;;;;;4994543;28;8512;-87
2022/10/12 00:44:03;;;;;;;;;;;;;;;;;;4994348;28;7179;-85
2022/10/12 00:46:36;;;;;;;;;;;;;;;;;;4994993;28;8381;-85
2022/10/12 00:49:04;;;;;;;;;;;;;;;;;;4994820;28;7132;-85
2022/10/12 00:51:30;;;;;;;;;;;;;;;;;;5011086;28;8780;-85
2022/10/12 00:54:01;;;;;;;;;;;;;;;;;;4994729;28;7003;-86
2022/10/12 00:56:31;;;;;;;;;;;;;;;;;;4994594;28;8419;-85
2022/10/12 00:59:00;;;;;;;;;;;;;;;;;;4995120;28;8506;-85
2022/10/12 01:01:26;;;;;;;;;;;;;;;;;;4994582;28;7444;-85
2022/10/12 01:03:52;;;;;;;;;;;;;;;;;;4994813;28;7267;-85
2022/10/12 01:06:19;;;;;;;;;;;;;;;;;;4994298;28;8432;-85
2022/10/12 01:08:45;;;;;;;;;;;;;;;;;;4995015;28;8480;-86
2022/10/12 01:11:11;;;;;;;;;;;;;;;;;;4994372;28;8402;-84
2022/10/12 01:13:37;;;;;;;;;;;;;;;;;;4994734;28;8392;-82
2022/10/12 01:16:03;;;;;;;;;;;;;;;;;;4994483;28;8461;-86
2022/10/12 01:18:54;;;;;;;;;;;;;;;;;;5010551;28;8971;-85
2022/10/12 01:21:22;;;;;;;;;;;;;;;;;;4994440;28;8795;-86
2022/10/12 01:24:14;;;;;;;;;;;;;;;;;;4994204;28;7168;-89
2022/10/12 01:26:56;;;;;;;;;;;;;;;;;;4986790;28;6974;-86
2022/10/12 01:29:34;;;;;;;;;;;;;;;;;;4994468;28;8312;-86
2022/10/12 01:32:11;;;;;;;;;;;;;;;;;;5011096;28;7060;-86
2022/10/12 01:34:44;;;;;;;;;;;;;;;;;;5010396;28;8408;-86
2022/10/12 01:37:18;;;;;;;;;;;;;;;;;;4994114;28;7239;-85
2022/10/12 01:39:56;;;;;;;;;;;;;;;;;;4996638;28;8387;-86
2022/10/12 01:42:34;;;;;;;;;;;;;;;;;;5014319;28;7421;-85
2022/10/12 01:45:04;;;;;;;;;;;;;;;;;;5013529;28;7165;-86
2022/10/12 01:47:31;;;;;;;;;;;;;;;;;;5013435;28;8751;-84
2022/10/12 01:49:58;;;;;;;;;;;;;;;;;;5013422;28;8428;-84
2022/10/12 01:52:26;;;;;;;;;;;;;;;;;;5014059;28;7180;-84
2022/10/12 01:55:15;;;;;;;;;;;;;;;;;;5013620;28;8473;-84
2022/10/12 01:57:56;;;;;;;;;;;;;;;;;;4997112;28;8692;-85
2022/10/12 02:00:22;;;;;;;;;;;;;;;;;;5013795;28;8781;-85
2022/10/12 02:02:50;;;;;;;;;;;;;;;;;;5013369;28;7168;-86
2022/10/12 02:05:15;;;;;;;;;;;;;;;;;;5013571;28;8478;-85
2022/10/12 02:07:41;;;;;;;;;;;;;;;;;;5013629;28;8293;-86
2022/10/12 02:10:12;;;;;;;;;;;;;;;;;;5013819;28;8295;-85
2022/10/12 02:12:40;;;;;;;;;;;;;;;;;;5013857;28;7229;-84
2022/10/12 02:15:09;;;;;;;;;;;;;;;;;;5013944;28;8702;-87
2022/10/12 02:17:38;;;;;;;;;;;;;;;;;;5013666;28;7148;-85
2022/10/12 02:20:05;;;;;;;;;;;;;;;;;;5013240;28;8484;-86
2022/10/12 02:22:37;;;;;;;;;;;;;;;;;;4997372;28;7116;-85
2022/10/12 02:25:06;;;;;;;;;;;;;;;;;;5017222;28;7058;-84
2022/10/12 02:27:34;;;;;;;;;;;;;;;;;;5016714;28;7031;-85
2022/10/12 02:30:01;;;;;;;;;;;;;;;;;;5017028;28;7335;-86
2022/10/12 02:32:33;;;;;;;;;;;;;;;;;;5017519;28;7168;-85
2022/10/12 02:35:08;;;;;;;;;;;;;;;;;;5016950;28;8423;-85
2022/10/12 02:37:38;;;;;;;;;;;;;;;;;;5017670;28;9492;-84
2022/10/12 02:40:13;;;;;;;;;;;;;;;;;;5013255;28;8319;-84
2022/10/12 02:42:43;;;;;;;;;;;;;;;;;;5013414;28;8566;-85
2022/10/12 02:45:12;;;;;;;;;;;;;;;;;;4996911;28;8493;-84
2022/10/12 02:47:39;;;;;;;;;;;;;;;;;;4996930;28;8705;-85
2022/10/12 02:50:07;;;;;;;;;;;;;;;;;;4996894;28;7214;-84
2022/10/12 02:52:33;;;;;;;;;;;;;;;;;;4996969;28;8434;-84
2022/10/12 02:54:59;;;;;;;;;;;;;;;;;;4996749;28;8465;-84
2022/10/12 02:57:24;;;;;;;;;;;;;;;;;;4996494;28;7149;-84
2022/10/12 02:59:50;;;;;;;;;;;;;;;;;;4996432;28;8483;-84
2022/10/12 03:02:15;;;;;;;;;;;;;;;;;;4996536;28;8543;-85
2022/10/12 03:04:41;;;;;;;;;;;;;;;;;;4996860;28;8283;-84
2022/10/12 03:07:07;;;;;;;;;;;;;;;;;;4996460;28;7028;-84
2022/10/12 03:09:32;;;;;;;;;;;;;;;;;;4997130;28;8717;-84
2022/10/12 03:11:58;;;;;;;;;;;;;;;;;;4997476;28;7006;-85
2022/10/12 03:14:25;;;;;;;;;;;;;;;;;;4996622;28;8382;-83
2022/10/12 03:16:51;;;;;;;;;;;;;;;;;;4996590;28;8574;-84
2022/10/12 03:19:16;;;;;;;;;;;;;;;;;;4996115;28;7122;-87
2022/10/12 03:21:41;;;;;;;;;;;;;;;;;;4996369;28;8686;-85
2022/10/12 03:24:07;;;;;;;;;;;;;;;;;;4996578;28;8355;-83
2022/10/12 03:26:33;;;;;;;;;;;;;;;;;;4996119;28;8397;-84
2022/10/12 03:28:58;;;;;;;;;;;;;;;;;;4996075;28;7120;-84
2022/10/12 03:31:24;;;;;;;;;;;;;;;;;;4996223;28;8375;-84
2022/10/12 03:33:50;;;;;;;;;;;;;;;;;;4995565;28;8347;-84
2022/10/12 03:36:15;;;;;;;;;;;;;;;;;;4996338;28;7225;-84
2022/10/12 03:38:40;;;;;;;;;;;;;;;;;;4996319;28;8627;-84
2022/10/12 03:41:06;;;;;;;;;;;;;;;;;;4995515;28;8605;-80
2022/10/12 03:43:32;;;;;;;;;;;;;;;;;;4995624;28;8364;-85
2022/10/12 03:45:57;;;;;;;;;;;;;;;;;;4995819;28;8382;-85
2022/10/12 03:48:22;;;;;;;;;;;;;;;;;;4995467;28;7214;-81
2022/10/12 03:50:50;;;;;;;;;;;;;;;;;;4996983;28;7234;-85
2022/10/12 03:53:16;;;;;;;;;;;;;;;;;;4996061;28;7147;-85
2022/10/12 03:55:42;;;;;;;;;;;;;;;;;;4995665;28;7163;-85
2022/10/12 03:58:07;;;;;;;;;;;;;;;;;;4995824;28;8396;-84
2022/10/12 04:00:33;;;;;;;;;;;;;;;;;;4995501;28;8655;-83
2022/10/12 04:02:59;;;;;;;;;;;;;;;;;;4995501;28;8355;-85
2022/10/12 04:05:25;;;;;;;;;;;;;;;;;;4995675;28;7495;-83
2022/10/12 04:07:50;;;;;;;;;;;;;;;;;;4995340;28;7335;-85
2022/10/12 04:10:16;;;;;;;;;;;;;;;;;;4995429;28;7302;-85
2022/10/12 04:12:41;;;;;;;;;;;;;;;;;;4995718;28;8443;-85
2022/10/12 04:15:07;;;;;;;;;;;;;;;;;;4995375;28;8440;-84
2022/10/12 04:17:33;;;;;;;;;;;;;;;;;;4995669;28;8801;-84
2022/10/12 04:19:58;;;;;;;;;;;;;;;;;;4994900;28;8416;-85
2022/10/12 04:22:24;;;;;;;;;;;;;;;;;;4995199;28;8391;-84
2022/10/12 04:24:49;;;;;;;;;;;;;;;;;;4995350;28;8459;-85
2022/10/12 04:27:15;;;;;;;;;;;;;;;;;;4995044;28;7132;-85
2022/10/12 04:29:40;;;;;;;;;;;;;;;;;;4994781;28;8571;-85
2022/10/12 04:32:06;;;;;;;;;;;;;;;;;;4994919;28;6979;-82
2022/10/12 04:34:31;;;;;;;;;;;;;;;;;;4995346;28;8467;-85
2022/10/12 04:36:57;;;;;;;;;;;;;;;;;;4994746;28;7294;-85
2022/10/12 04:39:23;;;;;;;;;;;;;;;;;;4994946;28;6988;-84
2022/10/12 04:41:48;;;;;;;;;;;;;;;;;;4994791;28;8387;-84
2022/10/12 04:44:14;;;;;;;;;;;;;;;;;;4995053;28;8360;-84
2022/10/12 04:46:39;;;;;;;;;;;;;;;;;;4994334;28;8397;-85
2022/10/12 04:49:05;;;;;;;;;;;;;;;;;;4994690;28;7152;-84
2022/10/12 04:51:30;;;;;;;;;;;;;;;;;;4994474;28;8456;-84
2022/10/12 04:53:56;;;;;;;;;;;;;;;;;;4995067;28;8449;-83
2022/10/12 04:56:22;;;;;;;;;;;;;;;;;;4994846;28;7125;-84
2022/10/12 04:58:47;;;;;;;;;;;;;;;;;;4994696;28;8679;-84
2022/10/12 05:01:12;;;;;;;;;;;;;;;;;;4994525;28;7137;-84
2022/10/12 05:03:38;;;;;;;;;;;;;;;;;;4994356;28;7357;-84
2022/10/12 05:06:03;;;;;;;;;;;;;;;;;;4994302;28;7137;-85
2022/10/12 05:08:29;;;;;;;;;;;;;;;;;;4994268;28;8370;-85
2022/10/12 05:10:57;;;;;;;;;;;;;;;;;;4994316;28;8473;-85
2022/10/12 05:13:22;;;;;;;;;;;;;;;;;;4994212;28;7164;-85
2022/10/12 05:15:48;;;;;;;;;;;;;;;;;;4994681;28;8390;-85
2022/10/12 05:18:13;;;;;;;;;;;;;;;;;;4994197;28;6998;-84
2022/10/12 05:20:38;;;;;;;;;;;;;;;;;;4994432;28;8394;-84
2022/10/12 05:23:04;;;;;;;;;;;;;;;;;;4994587;28;8264;-84
2022/10/12 05:25:29;;;;;;;;;;;;;;;;;;4994239;28;7975;-85
2022/10/12 05:27:56;;;;;;;;;;;;;;;;;;4994306;28;7158;-85
2022/10/12 05:30:22;;;;;;;;;;;;;;;;;;4984809;28;8301;-84
2022/10/12 05:32:48;;;;;;;;;;;;;;;;;;4974937;28;7011;-85
2022/10/12 05:35:14;;;;;;;;;;;;;;;;;;4974975;28;7008;-85
2022/10/12 05:37:40;;;;;;;;;;;;;;;;;;4974570;28;7140;-85
2022/10/12 05:40:06;;;;;;;;;;;;;;;;;;4971263;28;8986;-85
2022/10/12 05:42:33;;;;;;;;;;;;;;;;;;4971651;28;7024;-85
2022/10/12 05:44:59;;;;;;;;;;;;;;;;;;4971904;28;8373;-86
2022/10/12 05:47:24;;;;;;;;;;;;;;;;;;4971077;28;7144;-85
2022/10/12 05:49:50;;;;;;;;;;;;;;;;;;4972686;28;8604;-85
2022/10/12 05:52:16;;;;;;;;;;;;;;;;;;4971883;28;7233;-86
2022/10/12 05:54:41;;;;;;;;;;;;;;;;;;4971782;28;8664;-86
2022/10/12 05:57:06;;;;;;;;;;;;;;;;;;4972983;28;8284;-86
2022/10/12 05:59:32;;;;;;;;;;;;;;;;;;4975246;28;8492;-88
2022/10/12 06:01:58;;;;;;;;;;;;;;;;;;4975053;28;7134;-86
2022/10/12 06:04:23;;;;;;;;;;;;;;;;;;4975881;28;8400;-85
2022/10/12 06:06:49;;;;;;;;;;;;;;;;;;4974822;28;7369;-85
2022/10/12 06:09:15;;;;;;;;;;;;;;;;;;4974883;28;8378;-86
2022/10/12 06:11:40;;;;;;;;;;;;;;;;;;4975310;28;8329;-83
2022/10/12 06:14:06;;;;;;;;;;;;;;;;;;4974761;28;7129;-83
2022/10/12 06:16:31;;;;;;;;;;;;;;;;;;4974567;28;8577;-82
2022/10/12 06:18:57;;;;;;;;;;;;;;;;;;4974944;28;8290;-84
2022/10/12 06:21:22;;;;;;;;;;;;;;;;;;4974836;28;8783;-83
2022/10/12 06:23:47;;;;;;;;;;;;;;;;;;4975271;28;8432;-83
2022/10/12 06:26:13;;;;;;;;;;;;;;;;;;4975020;28;8418;-83
2022/10/12 06:28:39;;;;;;;;;;;;;;;;;;4974481;28;7031;-84
2022/10/12 06:31:04;;;;;;;;;;;;;;;;;;4974871;28;7135;-83
2022/10/12 06:33:30;;;;;;;;;;;;;;;;;;4974798;28;8380;-82
2022/10/12 06:35:55;;;;;;;;;;;;;;;;;;4974702;28;7106;-83
2022/10/12 06:38:21;;;;;;;;;;;;;;;;;;4974392;28;8441;-83
2022/10/12 06:40:47;;;;;;;;;;;;;;;;;;4974071;28;8656;-81
2022/10/12 06:43:13;;;;;;;;;;;;;;;;;;4974341;28;8407;-82
2022/10/12 06:45:39;;;;;;;;;;;;;;;;;;4973987;28;8422;-82
2022/10/12 06:48:06;;;;;;;;;;;;;;;;;;4974540;28;7330;-80
2022/10/12 06:50:31;;;;;;;;;;;;;;;;;;4969235;28;8410;-81
2022/10/12 06:52:57;;;;;;;;;;;;;;;;;;4988135;28;7131;-83
2022/10/12 06:55:23;;;;;;;;;;;;;;;;;;4978956;28;8297;-84
2022/10/12 06:57:48;;;;;;;;;;;;;;;;;;4976819;28;8285;-84
2022/10/12 07:00:14;;;;;;;;;;;;;;;;;;4977351;28;8464;-83
2022/10/12 07:02:39;;;;;;;;;;;;;;;;;;4977180;28;8354;-84
2022/10/12 07:05:06;;;;;;;;;;;;;;;;;;4976646;28;7350;-84
2022/10/12 07:07:33;;;;;;;;;;;;;;;;;;4977209;28;7179;-84
2022/10/12 07:09:59;;;;;;;;;;;;;;;;;;4976007;28;8412;-83
2022/10/12 07:12:26;;;;;;;;;;;;;;;;;;4976091;28;7022;-85
2022/10/12 07:14:53;;;;;;;;;;;;;;;;;;4976647;28;8387;-82
2022/10/12 07:17:19;;;;;;;;;;;;;;;;;;4976885;28;7414;-82
2022/10/12 07:19:44;;;;;;;;;;;;;;;;;;4976555;28;8364;-80
2022/10/12 07:22:10;;;;;;;;;;;;;;;;;;4976377;28;9041;-81
2022/10/12 07:24:35;;;;;;;;;;;;;;;;;;4976335;28;8437;-85
2022/10/12 07:27:02;;;;;;;;;;;;;;;;;;4976356;28;8843;-81
2022/10/12 07:29:30;;;;;;;;;;;;;;;;;;4976076;28;8681;-84
2022/10/12 07:31:55;;;;;;;;;;;;;;;;;;4975978;28;8773;-83
2022/10/12 07:34:21;;;;;;;;;;;;;;;;;;4976357;28;8335;-83
2022/10/12 07:36:46;;;;;;;;;;;;;;;;;;4976584;28;8384;-85
2022/10/12 07:39:12;;;;;;;;;;;;;;;;;;4976062;28;7324;-83
2022/10/12 07:41:37;;;;;;;;;;;;;;;;;;4975707;28;7391;-83
2022/10/12 07:44:03;;;;;;;;;;;;;;;;;;4992241;28;7191;-85
2022/10/12 07:46:28;;;;;;;;;;;;;;;;;;4992391;28;8424;-83
2022/10/12 07:48:53;;;;;;;;;;;;;;;;;;4992352;28;7374;-83
2022/10/12 07:51:19;;;;;;;;;;;;;;;;;;4992077;28;8398;-83
2022/10/12 07:53:44;;;;;;;;;;;;;;;;;;4992056;28;7023;-84
2022/10/12 07:56:15;;;;;;;;;;;;;;;;;;4992679;28;8348;-84
2022/10/12 07:58:48;;;;;;;;;;;;;;;;;;4992328;28;8567;-84
2022/10/12 08:01:15;;;;;;;;;;;;;;;;;;4992445;28;8820;-82
2022/10/12 08:03:41;;;;;;;;;;;;;;;;;;4992038;28;7504;-83
2022/10/12 08:06:08;;;;;;;;;;;;;;;;;;4992097;28;8407;-85
2022/10/12 08:08:33;;;;;;;;;;;;;;;;;;4991970;28;7041;-84
2022/10/12 08:11:03;;;;;;;;;;;;;;;;;;4992568;28;8385;-85
2022/10/12 08:13:29;;;;;;;;;;;;;;;;;;4992596;28;7609;-85
2022/10/12 08:15:54;;;;;;;;;;;;;;;;;;4991895;28;8620;-85
2022/10/12 08:18:20;;;;;;;;;;;;;;;;;;4991890;28;8638;-86
2022/10/12 08:20:45;;;;;;;;;;;;;;;;;;4993375;28;7014;-86
2022/10/12 08:23:12;;;;;;;;;;;;;;;;;;5002903;28;6880;-84
2022/10/12 08:25:37;;;;;;;;;;;;;;;;;;4991325;28;7053;-84
2022/10/12 08:28:03;;;;;;;;;;;;;;;;;;5007280;28;8431;-83
2022/10/12 08:30:29;;;;;;;;;;;;;;;;;;5010158;28;9538;-84
2022/10/12 08:32:54;;;;;;;;;;;;;;;;;;5010192;28;8426;-85
2022/10/12 08:35:20;;;;;;;;;;;;;;;;;;5011142;28;7131;-85
2022/10/12 08:37:46;;;;;;;;;;;;;;;;;;5010194;28;6851;-85
2022/10/12 08:40:23;;;;;;;;;;;;;;;;;;5011042;28;8379;-83
2022/10/12 08:42:59;;;;;;;;;;;;;;;;;;5011057;28;8871;-86
2022/10/12 08:45:45;;;;;;;;;;;;;;;;;;5011230;28;8458;-84
2022/10/12 08:48:11;;;;;;;;;;;;;;;;;;5011415;28;8400;-84
2022/10/12 08:50:45;;;;;;;;;;;;;;;;;;5011187;28;8318;-84
2022/10/12 08:53:19;;;;;;;;;;;;;;;;;;5011716;28;7162;-85
2022/10/12 08:55:46;;;;;;;;;;;;;;;;;;5010753;28;7509;-84
2022/10/12 08:58:19;;;;;;;;;;;;;;;;;;5011171;28;7027;-85
2022/10/12 09:00:51;;;;;;;;;;;;;;;;;;5010976;28;8579;-85
2022/10/12 09:03:19;;;;;;;;;;;;;;;;;;5011613;28;7216;-84
2022/10/12 09:06:07;;;;;;;;;;;;;;;;;;5010997;28;9055;-85
2022/10/12 09:08:51;;;;;;;;;;;;;;;;;;5010560;28;8393;-85
2022/10/12 09:11:20;;;;;;;;;;;;;;;;;;5010739;28;6951;-85
2022/10/12 09:13:51;;;;;;;;;;;;;;;;;;5011066;28;8414;-83
2022/10/12 09:16:25;;;;;;;;;;;;;;;;;;5011712;28;7269;-85
2022/10/12 09:18:57;;;;;;;;;;;;;;;;;;5010859;28;8399;-85
2022/10/12 09:21:26;;;;;;;;;;;;;;;;;;5010728;28;7040;-85
2022/10/12 09:23:54;;;;;;;;;;;;;;;;;;5010642;28;7133;-85
2022/10/12 09:26:34;;;;;;;;;;;;;;;;;;5010584;28;8987;-85
2022/10/12 09:29:01;;;;;;;;;;;;;;;;;;5011014;28;7372;-85
2022/10/12 09:31:32;;;;;;;;;;;;;;;;;;5010459;28;7151;-85
2022/10/12 09:34:00;;;;;;;;;;;;;;;;;;5014739;28;8568;-84
2022/10/12 09:36:29;;;;;;;;;;;;;;;;;;5014610;28;8357;-86
2022/10/12 09:38:57;;;;;;;;;;;;;;;;;;5015015;28;7223;-83
2022/10/12 09:41:38;;;;;;;;;;;;;;;;;;5014258;28;7606;-84
2022/10/12 09:44:05;;;;;;;;;;;;;;;;;;5014307;28;7107;-84
2022/10/12 09:46:39;;;;;;;;;;;;;;;;;;5002020;28;8478;-81
2022/10/12 09:49:05;;;;;;;;;;;;;;;;;;4991275;28;7072;-79
2022/10/12 09:51:31;;;;;;;;;;;;;;;;;;4994146;28;8462;-80
2022/10/12 09:54:02;;;;;;;;;;;;;;;;;;4994780;28;7437;-80
2022/10/12 09:56:33;;;;;;;;;;;;;;;;;;5000529;28;6897;-79
2022/10/12 09:59:01;;;;;;;;;;;;;;;;;;5018904;28;7155;-83
2022/10/12 10:01:28;;;;;;;;;;;;;;;;;;5015614;28;8447;-82
2022/10/12 10:04:13;;;;;;;;;;;;;;;;;;5015543;28;8418;-82
2022/10/12 10:06:41;;;;;;;;;;;;;;;;;;5013941;28;8429;-85
2022/10/12 10:09:26;;;;;;;;;;;;;;;;;;5013943;28;7460;-85
2022/10/12 10:11:52;;;;;;;;;;;;;;;;;;5014020;28;8816;-85
2022/10/12 10:14:17;;;;;;;;;;;;;;;;;;5014342;28;8649;-87
2022/10/12 10:16:49;;;;;;;;;;;;;;;;;;5014895;28;7106;-85
2022/10/12 10:19:21;;;;;;;;;;;;;;;;;;5013861;28;7024;-87
2022/10/12 10:21:47;;;;;;;;;;;;;;;;;;5013003;28;7057;-86
2022/10/12 10:24:28;;;;;;;;;;;;;;;;;;5014491;28;8916;-86
2022/10/12 10:26:56;;;;;;;;;;;;;;;;;;5013743;28;7065;-86
2022/10/12 10:29:29;;;;;;;;;;;;;;;;;;5013412;28;7471;-86
2022/10/12 10:32:22;;;;;;;;;;;;;;;;;;5014012;28;8703;-86
2022/10/12 10:34:59;;;;;;;;;;;;;;;;;;5013265;28;7051;-86
2022/10/12 10:37:25;;;;;;;;;;;;;;;;;;5013853;28;8444;-86
2022/10/12 10:39:54;;;;;;;;;;;;;;;;;;5016405;28;8804;-86
2022/10/12 10:42:30;;;;;;;;;;;;;;;;;;5016391;28;8823;-85
2022/10/12 10:44:59;;;;;;;;;;;;;;;;;;5015632;28;7211;-86
2022/10/12 10:47:25;;;;;;;;;;;;;;;;;;5016383;28;8789;-86
2022/10/12 10:49:54;;;;;;;;;;;;;;;;;;5016670;28;8761;-87
2022/10/12 10:52:28;;;;;;;;;;;;;;;;;;5020960;28;7183;-79
2022/10/12 10:55:09;;;;;;;;;;;;;;;;;;4995803;28;7203;-85
2022/10/12 10:57:38;;;;;;;;;;;;;;;;;;4996371;28;7417;-85
2022/10/12 11:00:05;;;;;;;;;;;;;;;;;;4980217;28;7199;-87
2022/10/12 11:02:44;;;;;;;;;;;;;;;;;;4980613;28;7034;-85
2022/10/12 11:05:19;;;;;;;;;;;;;;;;;;5015844;28;7457;-86
2022/10/12 11:07:56;;;;;;;;;;;;;;;;;;5017523;28;8326;-87
2022/10/12 11:10:28;;;;;;;;;;;;;;;;;;5035293;28;8751;-87
2022/10/12 11:13:05;;;;;;;;;;;;;;;;;;5035739;28;7046;-86
2022/10/12 11:15:36;;;;;;;;;;;;;;;;;;4999959;28;8370;-86
2022/10/12 11:18:22;;;;;;;;;;;;;;;;;;4999993;28;8593;-85
2022/10/12 11:20:57;;;;;;;;;;;;;;;;;;4995301;28;8416;-83
2022/10/12 11:23:49;;;;;;;;;;;;;;;;;;4987526;28;8599;-79
2022/10/12 11:26:20;;;;;;;;;;;;;;;;;;4994814;28;8334;-80
2022/10/12 11:28:46;;;;;;;;;;;;;;;;;;4998630;28;8269;-80
2022/10/12 11:31:18;;;;;;;;;;;;;;;;;;4999782;28;8527;-83
2022/10/12 11:33:45;;;;;;;;;;;;;;;;;;4999253;28;7188;-85
2022/10/12 11:36:13;;;;;;;;;;;;;;;;;;4999465;28;8497;-85
2022/10/12 11:38:44;;;;;;;;;;;;;;;;;;4999091;28;8605;-85
2022/10/12 11:41:15;;;;;;;;;;;;;;;;;;4995741;28;8474;-85
2022/10/12 11:43:57;;;;;;;;;;;;;;;;;;4995852;28;7176;-84
2022/10/12 11:46:32;;;;;;;;;;;;;;;;;;4995890;28;7366;-85
2022/10/12 11:49:08;;;;;;;;;;;;;;;;;;4995912;28;7045;-86
2022/10/12 11:51:34;;;;;;;;;;;;;;;;;;4996079;28;8439;-85
2022/10/12 11:54:15;;;;;;;;;;;;;;;;;;4995683;28;7029;-85
2022/10/12 11:56:44;;;;;;;;;;;;;;;;;;4995533;28;8726;-85
2022/10/12 11:59:30;;;;;;;;;;;;;;;;;;4995583;28;8451;-85
2022/10/12 12:02:19;;;;;;;;;;;;;;;;;;4995507;28;7171;-85
2022/10/12 12:04:46;;;;;;;;;;;;;;;;;;4992388;28;7165;-85
2022/10/12 12:07:30;;;;;;;;;;;;;;;;;;4994930;28;8471;-85
2022/10/12 12:09:56;;;;;;;;;;;;;;;;;;4994876;28;7231;-85
2022/10/12 12:12:24;;;;;;;;;;;;;;;;;;4995012;28;8320;-84
2022/10/12 12:14:49;;;;;;;;;;;;;;;;;;4995127;28;7458;-86
2022/10/12 12:17:18;;;;;;;;;;;;;;;;;;5011414;28;8591;-85
2022/10/12 12:19:46;;;;;;;;;;;;;;;;;;5011625;28;8816;-85
2022/10/12 12:22:22;;;;;;;;;;;;;;;;;;4995523;28;7272;-83
2022/10/12 12:25:03;;;;;;;;;;;;;;;;;;4995423;28;7237;-86
2022/10/12 12:27:34;;;;;;;;;;;;;;;;;;5011523;28;7073;-84
2022/10/12 12:30:02;;;;;;;;;;;;;;;;;;5010776;28;7045;-85
2022/10/12 12:32:41;;;;;;;;;;;;;;;;;;5016660;28;7397;-83
2022/10/12 12:35:17;;;;;;;;;;;;;;;;;;5014548;28;8627;-87
2022/10/12 12:37:44;;;;;;;;;;;;;;;;;;5014265;28;7173;-86
2022/10/12 12:40:20;;;;;;;;;;;;;;;;;;4996885;28;7015;-86
2022/10/12 12:42:45;;;;;;;;;;;;;;;;;;4997112;28;8751;-85
2022/10/12 12:45:29;;;;;;;;;;;;;;;;;;4988789;28;8455;-81
2022/10/12 12:47:55;;;;;;;;;;;;;;;;;;5006182;28;7097;-85
2022/10/12 12:50:38;;;;;;;;;;;;;;;;;;5001076;28;8416;-82
2022/10/12 12:53:07;;;;;;;;;;;;;;;;;;4986093;28;8430;-84
2022/10/12 12:55:44;;;;;;;;;;;;;;;;;;5000720;28;8434;-84
2022/10/12 12:58:19;;;;;;;;;;;;;;;;;;5007718;28;8480;-84
2022/10/12 13:00:53;;;;;;;;;;;;;;;;;;5029690;28;7450;-83
2022/10/12 13:03:28;;;;;;;;;;;;;;;;;;4985169;28;8691;-85
2022/10/12 13:06:12;;;;;;;;;;;;;;;;;;5003652;28;8291;-86
2022/10/12 13:08:38;;;;;;;;;;;;;;;;;;4972838;28;7089;-85
2022/10/12 13:11:22;;;;;;;;;;;;;;;;;;4980079;28;8408;-86
2022/10/12 13:13:59;;;;;;;;;;;;;;;;;;5009339;28;8495;-83
2022/10/12 13:16:43;;;;;;;;;;;;;;;;;;5012310;28;8727;-81
2022/10/12 13:19:11;;;;;;;;;;;;;;;;;;5027282;28;8358;-84
2022/10/12 13:21:45;;;;;;;;;;;;;;;;;;5008767;28;8492;-79
2022/10/12 13:24:15;;;;;;;;;;;;;;;;;;5009316;28;7116;-85
2022/10/12 13:26:44;;;;;;;;;;;;;;;;;;5009455;28;7201;-85
2022/10/12 13:29:31;;;;;;;;;;;;;;;;;;5025766;28;8529;-82
2022/10/12 13:32:01;;;;;;;;;;;;;;;;;;5011915;28;8733;-84
2022/10/12 13:34:34;;;;;;;;;;;;;;;;;;5012777;28;8686;-81
2022/10/12 13:37:11;;;;;;;;;;;;;;;;;;4991506;28;7187;-81
2022/10/12 13:39:39;;;;;;;;;;;;;;;;;;5007070;28;7258;-80
2022/10/12 13:42:05;;;;;;;;;;;;;;;;;;5012662;28;8478;-81
2022/10/12 13:44:35;;;;;;;;;;;;;;;;;;5013223;28;7047;-84
2022/10/12 13:47:03;;;;;;;;;;;;;;;;;;5031076;28;8529;-80
2022/10/12 13:49:30;;;;;;;;;;;;;;;;;;5018746;28;7079;-86
2022/10/12 13:52:00;;;;;;;;;;;;;;;;;;5016977;28;7250;-81
2022/10/12 13:54:35;;;;;;;;;;;;;;;;;;5017034;28;8873;-82
2022/10/12 13:57:05;;;;;;;;;;;;;;;;;;5033179;28;7135;-81
2022/10/12 13:59:35;;;;;;;;;;;;;;;;;;5016891;28;7053;-80
2022/10/12 14:02:01;;;;;;;;;;;;;;;;;;5017437;28;8683;-80
2022/10/12 14:04:31;;;;;;;;;;;;;;;;;;5016812;28;8402;-79
2022/10/12 14:07:10;;;;;;;;;;;;;;;;;;5016465;28;7233;-79
2022/10/12 14:09:44;;;;;;;;;;;;;;;;;;5016666;28;8426;-78
2022/10/12 14:12:11;;;;;;;;;;;;;;;;;;5017331;28;7142;-78
2022/10/12 14:14:39;;;;;;;;;;;;;;;;;;5016551;28;8601;-78
2022/10/12 14:17:04;;;;;;;;;;;;;;;;;;5016641;28;8443;-79
2022/10/12 14:19:35;;;;;;;;;;;;;;;;;;5018413;28;9296;-80
2022/10/12 14:22:02;;;;;;;;;;;;;;;;;;5020686;28;8408;-80
2022/10/12 14:24:29;;;;;;;;;;;;;;;;;;5020639;28;7254;-80
2022/10/12 14:26:58;;;;;;;;;;;;;;;;;;5020561;28;8426;-79
2022/10/12 14:29:28;;;;;;;;;;;;;;;;;;5020431;28;7105;-80
2022/10/12 14:31:55;;;;;;;;;;;;;;;;;;5020280;28;7190;-81
2022/10/12 14:34:27;;;;;;;;;;;;;;;;;;5020473;28;7173;-80
2022/10/12 14:37:25;;;;;;;;;;;;;;;;;;5036307;28;8329;-80
2022/10/12 14:39:58;;;;;;;;;;;;;;;;;;5008259;28;7253;-80
2022/10/12 14:42:34;;;;;;;;;;;;;;;;;;5020117;28;8527;-80
2022/10/12 14:45:01;;;;;;;;;;;;;;;;;;5019882;28;7161;-80
2022/10/12 14:47:36;;;;;;;;;;;;;;;;;;5018302;28;8601;-79
2022/10/12 14:50:07;;;;;;;;;;;;;;;;;;5018421;28;8632;-80
2022/10/12 14:52:44;;;;;;;;;;;;;;;;;;5018363;28;8851;-80
2022/10/12 14:55:18;;;;;;;;;;;;;;;;;;5018604;28;8709;-77
2022/10/12 14:57:43;;;;;;;;;;;;;;;;;;5018204;28;7271;-79
2022/10/12 15:00:12;;;;;;;;;;;;;;;;;;5018562;28;8896;-80
2022/10/12 15:02:40;;;;;;;;;;;;;;;;;;5019124;28;8470;-80
2022/10/12 15:05:08;;;;;;;;;;;;;;;;;;5019616;28;8430;-82
2022/10/12 15:07:34;;;;;;;;;;;;;;;;;;5019645;28;8583;-82
2022/10/12 15:10:00;;;;;;;;;;;;;;;;;;5014936;28;8458;-80
2022/10/12 15:12:28;;;;;;;;;;;;;;;;;;5019359;28;7339;-81
2022/10/12 15:14:55;;;;;;;;;;;;;;;;;;5019099;28;7275;-81
2022/10/12 15:17:20;;;;;;;;;;;;;;;;;;5019194;28;7227;-80
2022/10/12 15:19:47;;;;;;;;;;;;;;;;;;5019009;28;8411;-78
2022/10/12 15:22:14;;;;;;;;;;;;;;;;;;5018975;28;8682;-79
2022/10/12 15:24:40;;;;;;;;;;;;;;;;;;5020498;28;8491;-80
2022/10/12 15:27:06;;;;;;;;;;;;;;;;;;5018917;28;8719;-81
2022/10/12 15:29:31;;;;;;;;;;;;;;;;;;5018519;28;8364;-80
2022/10/12 15:31:58;;;;;;;;;;;;;;;;;;5019075;28;8615;-84
2022/10/12 15:34:24;;;;;;;;;;;;;;;;;;5018423;28;7054;-77
2022/10/12 15:36:50;;;;;;;;;;;;;;;;;;5018876;28;8452;-81
2022/10/12 15:39:15;;;;;;;;;;;;;;;;;;5018903;28;7165;-81
2022/10/12 15:41:41;;;;;;;;;;;;;;;;;;5018217;28;7238;-81
2022/10/12 15:44:09;;;;;;;;;;;;;;;;;;5018454;28;8530;-80
2022/10/12 15:46:34;;;;;;;;;;;;;;;;;;5018909;28;8518;-80
2022/10/12 15:49:00;;;;;;;;;;;;;;;;;;5018402;28;7034;-80
2022/10/12 15:51:25;;;;;;;;;;;;;;;;;;5018506;28;8729;-80
2022/10/12 15:53:52;;;;;;;;;;;;;;;;;;5019443;28;8465;-81
2022/10/12 15:56:18;;;;;;;;;;;;;;;;;;5018892;28;7150;-78
2022/10/12 15:58:44;;;;;;;;;;;;;;;;;;5018312;28;7090;-81
2022/10/12 16:01:11;;;;;;;;;;;;;;;;;;5018970;28;8421;-80
2022/10/12 16:03:37;;;;;;;;;;;;;;;;;;5018647;28;8574;-79
2022/10/12 16:06:03;;;;;;;;;;;;;;;;;;5018440;28;8477;-80
2022/10/12 16:08:28;;;;;;;;;;;;;;;;;;5018732;28;8429;-77
2022/10/12 16:10:54;;;;;;;;;;;;;;;;;;5018328;28;7003;-79
2022/10/12 16:13:20;;;;;;;;;;;;;;;;;;5018104;28;7008;-83
2022/10/12 16:15:45;;;;;;;;;;;;;;;;;;5017139;28;7104;-80
2022/10/12 16:18:14;;;;;;;;;;;;;;;;;;5017718;28;8628;-81
2022/10/12 16:20:40;;;;;;;;;;;;;;;;;;5017884;28;8587;-80
2022/10/12 16:23:11;;;;;;;;;;;;;;;;;;5018291;28;7076;-80
2022/10/12 16:25:37;;;;;;;;;;;;;;;;;;5017648;28;8464;-82
2022/10/12 16:28:03;;;;;;;;;;;;;;;;;;5017953;28;8600;-80
2022/10/12 16:30:29;;;;;;;;;;;;;;;;;;5017960;28;7193;-80
2022/10/12 16:32:55;;;;;;;;;;;;;;;;;;5017640;28;7269;-80
2022/10/12 16:35:21;;;;;;;;;;;;;;;;;;5017884;28;8449;-81
2022/10/12 16:37:46;;;;;;;;;;;;;;;;;;5017732;28;7035;-79
2022/10/12 16:40:13;;;;;;;;;;;;;;;;;;5014120;28;8419;-81
2022/10/12 16:42:39;;;;;;;;;;;;;;;;;;5013810;28;8721;-79
2022/10/12 16:45:05;;;;;;;;;;;;;;;;;;5014653;28;8413;-81
2022/10/12 16:47:30;;;;;;;;;;;;;;;;;;5014185;28;8448;-81
2022/10/12 16:49:56;;;;;;;;;;;;;;;;;;5014444;28;8559;-81
2022/10/12 16:52:23;;;;;;;;;;;;;;;;;;5014412;28;8379;-81
2022/10/12 16:54:50;;;;;;;;;;;;;;;;;;5014190;28;8706;-81
2022/10/12 16:57:15;;;;;;;;;;;;;;;;;;5014507;28;8504;-79
2022/10/12 16:59:41;;;;;;;;;;;;;;;;;;5015839;28;7019;-81
2022/10/12 17:02:07;;;;;;;;;;;;;;;;;;5013867;28;8688;-80
2022/10/12 17:04:32;;;;;;;;;;;;;;;;;;5013864;28;8491;-81
2022/10/12 17:06:58;;;;;;;;;;;;;;;;;;5013851;28;8626;-80
2022/10/12 17:09:23;;;;;;;;;;;;;;;;;;5014144;28;8412;-81
2022/10/12 17:11:49;;;;;;;;;;;;;;;;;;5013861;28;7195;-80
2022/10/12 17:14:15;;;;;;;;;;;;;;;;;;5014316;28;7028;-79